createdAt,value
2023-08-15T00:00:44.199Z,18.9
2023-08-15T00:02:41.211Z,18.8
2023-08-15T00:04:38.376Z,18.8
2023-08-15T00:06:35.320Z,18.8
2023-08-15T00:08:32.202Z,18.8
2023-08-15T00:10:29.144Z,18.8
2023-08-15T00:12:26.141Z,18.8
2023-08-15T00:14:23.253Z,18.8
2023-08-15T00:16:20.361Z,18.8
2023-08-15T00:18:17.513Z,18.8
2023-08-15T00:20:14.468Z,18.8
2023-08-15T00:22:11.308Z,18.9
2023-08-15T00:24:08.300Z,18.9
2023-08-15T00:26:05.453Z,18.9
2023-08-15T00:28:02.452Z,18.9
2023-08-15T00:29:59.510Z,18.9
2023-08-15T00:31:56.730Z,18.8
2023-08-15T00:33:53.650Z,18.8
2023-08-15T00:35:50.587Z,18.8
2023-08-15T00:37:47.968Z,18.7
2023-08-15T00:39:44.909Z,18.7
2023-08-15T00:41:41.751Z,18.7
2023-08-15T00:43:38.690Z,18.7
2023-08-15T00:45:35.762Z,18.7
2023-08-15T00:47:32.733Z,18.7
2023-08-15T00:49:29.727Z,18.7
2023-08-15T00:51:26.764Z,18.6
2023-08-15T00:53:23.651Z,18.6
2023-08-15T00:55:20.695Z,18.6
2023-08-15T00:57:17.695Z,18.5
2023-08-15T00:59:14.976Z,18.5
2023-08-15T01:01:11.910Z,18.5
2023-08-15T01:03:09.112Z,18.5
2023-08-15T01:05:06.219Z,18.6
2023-08-15T01:07:03.166Z,18.6
2023-08-15T01:09:00.110Z,18.6
2023-08-15T01:10:56.997Z,18.7
2023-08-15T01:12:53.975Z,18.7
2023-08-15T01:14:50.931Z,18.7
2023-08-15T01:16:48.206Z,18.8
2023-08-15T01:18:45.177Z,18.8
2023-08-15T01:20:42.231Z,18.8
2023-08-15T01:22:39.088Z,18.8
2023-08-15T01:24:36.284Z,18.8
2023-08-15T01:26:33.310Z,18.8
2023-08-15T01:28:30.286Z,18.7
2023-08-15T01:30:27.154Z,18.7
2023-08-15T01:32:24.224Z,18.8
2023-08-15T01:34:21.373Z,18.8
2023-08-15T01:36:18.298Z,18.8
2023-08-15T01:38:15.252Z,18.8
2023-08-15T01:40:12.195Z,18.9
2023-08-15T01:42:09.194Z,18.9
2023-08-15T01:44:06.184Z,18.9
2023-08-15T01:46:03.242Z,18.9
2023-08-15T01:48:00.486Z,19
2023-08-15T01:49:57.825Z,19.1
2023-08-15T01:51:54.785Z,19.1
2023-08-15T01:53:51.841Z,19.2
2023-08-15T01:55:48.798Z,19.2
2023-08-15T01:57:45.752Z,19.3
2023-08-15T01:59:42.660Z,19.4
2023-08-15T02:01:39.685Z,19.5
2023-08-15T02:03:36.954Z,19.7
2023-08-15T02:05:36.004Z,19.7
2023-08-15T02:07:33.372Z,19.8
2023-08-15T02:09:30.307Z,19.9
2023-08-15T02:11:27.301Z,20
2023-08-15T02:13:24.293Z,20
2023-08-15T02:15:21.159Z,20.1
2023-08-15T02:17:18.479Z,20.1
2023-08-15T02:19:16.280Z,20.2
2023-08-15T02:21:13.425Z,20.3
2023-08-15T02:23:10.487Z,20.3
2023-08-15T02:25:07.481Z,20.3
2023-08-15T02:27:04.476Z,20.3
2023-08-15T02:29:01.518Z,20.3
2023-08-15T02:30:58.513Z,20.3
2023-08-15T02:32:55.766Z,20.3
2023-08-15T02:34:52.931Z,20.4
2023-08-15T02:36:50.101Z,20.3
2023-08-15T02:38:46.994Z,20.3
2023-08-15T02:40:44.139Z,20.4
2023-08-15T02:42:41.002Z,20.5
2023-08-15T02:44:37.975Z,20.5
2023-08-15T02:46:35.240Z,20.5
2023-08-15T02:48:32.348Z,20.5
2023-08-15T02:50:29.387Z,20.4
2023-08-15T02:52:26.439Z,20.3
2023-08-15T02:54:23.319Z,20.3
2023-08-15T02:56:20.290Z,20.3
2023-08-15T02:58:17.172Z,20.2
2023-08-15T03:00:14.129Z,20.2
2023-08-15T03:02:11.345Z,20.1
2023-08-15T03:04:08.484Z,20
2023-08-15T03:06:05.696Z,20
2023-08-15T03:08:02.649Z,20
2023-08-15T03:09:59.539Z,20
2023-08-15T03:11:56.511Z,19.9
2023-08-15T03:13:53.559Z,19.8
2023-08-15T03:15:50.475Z,19.7
2023-08-15T03:17:47.983Z,19.7
2023-08-15T03:19:45.170Z,19.7
2023-08-15T03:21:42.198Z,19.6
2023-08-15T03:23:39.358Z,19.5
2023-08-15T03:25:36.298Z,19.5
2023-08-15T03:27:33.249Z,19.5
2023-08-15T03:29:30.085Z,19.5
2023-08-15T03:31:27.125Z,19.5
2023-08-15T03:33:24.170Z,19.5
2023-08-15T03:35:22.670Z,19.5
2023-08-15T03:37:20.303Z,19.5
2023-08-15T03:39:17.867Z,19.4
2023-08-15T03:41:14.890Z,19.4
2023-08-15T03:43:11.848Z,19.4
2023-08-15T03:45:08.841Z,19.4
2023-08-15T03:47:05.936Z,19.3
2023-08-15T03:49:02.876Z,19.3
2023-08-15T03:50:59.820Z,19.3
2023-08-15T03:52:57.028Z,19.3
2023-08-15T03:54:54.112Z,19.3
2023-08-15T03:56:51.117Z,19.3
2023-08-15T03:58:48.080Z,19.2
2023-08-15T04:00:45.098Z,19.2
2023-08-15T04:02:42.210Z,19.2
2023-08-15T04:04:39.485Z,19.2
2023-08-15T04:06:36.483Z,19.2
2023-08-15T04:08:33.956Z,19.2
2023-08-15T04:10:31.024Z,19.1
2023-08-15T04:12:28.066Z,19.1
2023-08-15T04:14:25.173Z,19.1
2023-08-15T04:16:22.184Z,19.1
2023-08-15T04:18:19.509Z,19.1
2023-08-15T04:20:16.604Z,19.1
2023-08-15T04:22:13.699Z,19.1
2023-08-15T04:24:10.670Z,19.1
2023-08-15T04:26:07.863Z,19.2
2023-08-15T04:28:04.947Z,19.2
2023-08-15T04:30:01.974Z,19.2
2023-08-15T04:31:59.160Z,19.2
2023-08-15T04:33:56.331Z,19.2
2023-08-15T04:35:53.363Z,19.2
2023-08-15T04:37:50.969Z,19.2
2023-08-15T04:39:48.159Z,19.2
2023-08-15T04:41:45.503Z,19.2
2023-08-15T04:43:42.508Z,19.2
2023-08-15T04:45:39.441Z,19.2
2023-08-15T04:47:36.569Z,19.1
2023-08-15T04:49:33.792Z,19.1
2023-08-15T04:51:30.838Z,19.1
2023-08-15T04:53:27.895Z,19.1
2023-08-15T04:55:25.013Z,19.1
2023-08-15T04:57:22.251Z,19.1
2023-08-15T04:59:19.734Z,19.1
2023-08-15T05:01:16.747Z,19.1
2023-08-15T05:03:13.992Z,19.1
2023-08-15T05:05:11.038Z,19.1
2023-08-15T05:07:08.027Z,19.1
2023-08-15T05:09:05.212Z,19.1
2023-08-15T05:11:02.285Z,19.1
2023-08-15T05:12:59.448Z,19
2023-08-15T05:14:56.441Z,19
2023-08-15T05:16:53.592Z,19
2023-08-15T05:18:50.645Z,19
2023-08-15T05:20:47.685Z,18.9
2023-08-15T05:22:44.830Z,18.8
2023-08-15T05:24:41.884Z,18.7
2023-08-15T05:26:39.005Z,18.6
2023-08-15T05:28:36.069Z,18.4
2023-08-15T05:30:33.064Z,18.3
2023-08-15T05:32:30.123Z,18.2
2023-08-15T05:34:27.193Z,18.1
2023-08-15T05:36:24.268Z,18
2023-08-15T05:38:21.278Z,17.8
2023-08-15T05:40:18.302Z,17.7
2023-08-15T05:42:15.366Z,17.6
2023-08-15T05:44:12.361Z,17.5
2023-08-15T05:46:09.406Z,17.5
2023-08-15T05:48:07.625Z,17.4
2023-08-15T05:50:08.006Z,17.4
2023-08-15T05:52:04.987Z,17.3
2023-08-15T05:54:01.940Z,17.3
2023-08-15T05:55:58.976Z,17.2
2023-08-15T05:57:57.725Z,17.2
2023-08-15T05:59:54.939Z,17.2
2023-08-15T06:01:51.936Z,17.2
2023-08-15T06:04:08.874Z,17.3
2023-08-15T06:06:06.056Z,17.4
2023-08-15T06:08:03.070Z,17.5
2023-08-15T06:10:00.222Z,17.5
2023-08-15T06:11:57.080Z,17.5
2023-08-15T06:13:54.175Z,17.5
2023-08-15T06:15:51.255Z,17.5
2023-08-15T06:17:48.877Z,17.5
2023-08-15T06:19:45.930Z,17.5
2023-08-15T06:21:42.926Z,17.5
2023-08-15T06:23:40.031Z,17.6
2023-08-15T06:25:37.321Z,17.6
2023-08-15T06:27:34.577Z,17.6
2023-08-15T06:29:31.747Z,17.7
2023-08-15T06:31:28.983Z,17.7
2023-08-15T06:33:26.104Z,17.7
2023-08-15T06:35:23.207Z,17.8
2023-08-15T06:37:20.513Z,17.8
2023-08-15T06:39:18.051Z,17.8
2023-08-15T06:41:15.044Z,17.8
2023-08-15T06:43:12.002Z,17.9
2023-08-15T06:45:09.010Z,18
2023-08-15T06:47:06.081Z,18
2023-08-15T06:49:03.279Z,18
2023-08-15T06:51:00.289Z,18
2023-08-15T06:52:57.639Z,18
2023-08-15T06:54:54.927Z,18
2023-08-15T06:56:51.907Z,18
2023-08-15T06:58:48.900Z,18.1
2023-08-15T07:00:45.990Z,18.1
2023-08-15T07:02:43.258Z,18.2
2023-08-15T07:04:40.482Z,18.4
2023-08-15T07:06:37.498Z,18.6
2023-08-15T07:08:34.538Z,18.8
2023-08-15T07:10:31.725Z,18.9
2023-08-15T07:12:28.681Z,19.1
2023-08-15T07:14:25.771Z,19.3
2023-08-15T07:16:22.927Z,19.4
2023-08-15T07:18:20.176Z,19.5
2023-08-15T07:20:17.055Z,19.7
2023-08-15T07:22:14.146Z,19.8
2023-08-15T07:24:11.172Z,19.9
2023-08-15T07:26:08.234Z,20
2023-08-15T07:28:05.120Z,20.3
2023-08-15T07:30:02.067Z,20.9
2023-08-15T07:31:59.157Z,21.5
2023-08-15T07:33:56.360Z,22
2023-08-15T07:35:53.451Z,22.3
2023-08-15T07:37:50.445Z,22.5
2023-08-15T07:39:47.393Z,22.3
2023-08-15T07:41:44.788Z,22.2
2023-08-15T07:43:41.732Z,22.1
2023-08-15T07:45:38.894Z,22
2023-08-15T07:47:35.949Z,22
2023-08-15T07:49:33.691Z,22.1
2023-08-15T07:51:36.002Z,22.3
2023-08-15T07:53:33.149Z,22.5
2023-08-15T07:55:31.870Z,22.6
2023-08-15T07:57:30.255Z,22.7
2023-08-15T07:59:27.426Z,23
2023-08-15T08:01:24.507Z,23.6
2023-08-15T08:03:22.006Z,24
2023-08-15T08:05:19.380Z,24.5
2023-08-15T08:07:18.818Z,25
2023-08-15T08:09:15.744Z,25.4
2023-08-15T08:11:12.599Z,26
2023-08-15T08:13:09.383Z,26.4
2023-08-15T08:15:13.316Z,26.6
2023-08-15T08:17:10.213Z,26.8
2023-08-15T08:19:06.975Z,27
2023-08-15T08:21:03.791Z,27.2
2023-08-15T08:23:00.508Z,27.4
2023-08-15T08:24:57.265Z,27.5
2023-08-15T08:26:53.923Z,27.8
2023-08-15T08:28:50.687Z,28.1
2023-08-15T08:30:47.412Z,28.5
2023-08-15T08:32:44.173Z,28.7
2023-08-15T08:34:40.980Z,28.8
2023-08-15T08:36:37.810Z,28.9
2023-08-15T08:38:34.629Z,29
2023-08-15T08:40:31.360Z,29.5
2023-08-15T08:42:28.149Z,29.7
2023-08-15T08:44:24.785Z,29.8
2023-08-15T08:46:21.428Z,29.9
2023-08-15T08:48:18.569Z,30
2023-08-15T08:50:15.375Z,30.3
2023-08-15T08:52:12.246Z,30.5
2023-08-15T08:54:09.084Z,30.8
2023-08-15T08:56:05.975Z,31.1
2023-08-15T08:58:02.836Z,31.4
2023-08-15T08:59:59.663Z,31.5
2023-08-15T09:01:56.644Z,31.8
2023-08-15T09:03:53.593Z,32
2023-08-15T09:05:50.461Z,32.2
2023-08-15T09:07:48.080Z,32.5
2023-08-15T09:09:44.973Z,32.8
2023-08-15T09:11:41.924Z,33.1
2023-08-15T09:13:38.912Z,33.3
2023-08-15T09:15:35.891Z,33.6
2023-08-15T09:17:32.867Z,33.8
2023-08-15T09:19:29.832Z,33.6
2023-08-15T09:21:26.897Z,33.3
2023-08-15T09:23:24.028Z,33.1
2023-08-15T09:25:20.972Z,32.9
2023-08-15T09:27:17.907Z,32.5
2023-08-15T09:29:14.795Z,32.2
2023-08-15T09:31:11.901Z,32.2
2023-08-15T09:33:09.073Z,32.2
2023-08-15T09:35:06.663Z,32.4
2023-08-15T09:37:03.567Z,32.6
2023-08-15T09:39:00.836Z,32.8
2023-08-15T09:40:57.737Z,32.8
2023-08-15T09:42:54.685Z,32.5
2023-08-15T09:44:51.658Z,32.4
2023-08-15T09:46:49.323Z,32.4
2023-08-15T09:48:48.258Z,32.4
2023-08-15T09:50:45.679Z,32.4
2023-08-15T09:52:42.881Z,32.5
2023-08-15T09:54:40.208Z,32.8
2023-08-15T09:56:37.206Z,33
2023-08-15T09:58:34.043Z,33.3
2023-08-15T10:00:30.991Z,33.4
2023-08-15T10:02:27.914Z,33.5
2023-08-15T10:04:25.124Z,33.5
2023-08-15T10:06:22.120Z,33.3
2023-08-15T10:08:19.243Z,33.1
2023-08-15T10:10:16.254Z,33.1
2023-08-15T10:12:13.392Z,33
2023-08-15T10:14:10.546Z,33.1
2023-08-15T10:16:07.426Z,33.3
2023-08-15T10:18:04.751Z,33.5
2023-08-15T10:20:03.459Z,33.6
2023-08-15T10:22:04.052Z,33.6
2023-08-15T10:24:01.081Z,33.7
2023-08-15T10:25:58.138Z,33.6
2023-08-15T10:27:55.350Z,33.5
2023-08-15T10:29:52.489Z,33.6
2023-08-15T10:31:49.549Z,33.8
2023-08-15T10:33:46.541Z,34
2023-08-15T10:35:43.918Z,34
2023-08-15T10:37:40.861Z,34
2023-08-15T10:39:37.845Z,33.9
2023-08-15T10:41:34.822Z,33.6
2023-08-15T10:43:31.710Z,33.4
2023-08-15T10:45:28.777Z,33.5
2023-08-15T10:47:28.152Z,33.7
2023-08-15T10:49:28.139Z,33.8
2023-08-15T10:51:24.900Z,33.8
2023-08-15T10:53:24.725Z,33.8
2023-08-15T10:55:21.570Z,34.2
2023-08-15T10:57:18.488Z,34.8
2023-08-15T10:59:15.506Z,35.5
2023-08-15T11:01:12.763Z,35.7
2023-08-15T11:03:09.837Z,35.6
2023-08-15T11:05:09.032Z,35.2
2023-08-15T11:07:06.039Z,34.7
2023-08-15T11:09:03.022Z,34
2023-08-15T11:11:00.154Z,33.3
2023-08-15T11:12:57.034Z,32.8
2023-08-15T11:14:54.071Z,33
2023-08-15T11:16:51.154Z,33.5
2023-08-15T11:18:48.115Z,34.2
2023-08-15T11:20:45.101Z,34.6
2023-08-15T11:22:42.062Z,34.4
2023-08-15T11:24:38.986Z,34.1
2023-08-15T11:26:35.967Z,33.6
2023-08-15T11:28:33.112Z,33
2023-08-15T11:30:30.057Z,32.4
2023-08-15T11:32:27.029Z,31.8
2023-08-15T11:34:24.198Z,31.5
2023-08-15T11:36:21.300Z,31.9
2023-08-15T11:38:18.231Z,32.5
2023-08-15T11:40:15.101Z,33.1
2023-08-15T11:42:12.422Z,33.1
2023-08-15T11:44:09.549Z,33
2023-08-15T11:46:06.671Z,32.6
2023-08-15T11:48:03.983Z,32.1
2023-08-15T11:50:10.586Z,31.6
2023-08-15T11:52:07.685Z,31.1
2023-08-15T11:54:04.524Z,30.8
2023-08-15T11:56:01.574Z,30.3
2023-08-15T11:57:58.596Z,30
2023-08-15T11:59:55.600Z,29.7
2023-08-15T12:01:52.541Z,29.9
2023-08-15T12:03:49.556Z,30.5
2023-08-15T12:05:46.659Z,31.4
2023-08-15T12:07:43.625Z,32
2023-08-15T12:09:40.568Z,32.3
2023-08-15T12:11:38.019Z,32.8
2023-08-15T12:13:34.962Z,33.1
2023-08-15T12:15:31.954Z,33
2023-08-15T12:17:28.809Z,32.7
2023-08-15T12:19:27.817Z,32.2
2023-08-15T12:21:24.931Z,31.8
2023-08-15T12:23:26.994Z,31.3
2023-08-15T12:25:26.291Z,30.9
2023-08-15T12:27:23.282Z,30.5
2023-08-15T12:29:20.244Z,30
2023-08-15T12:32:15.028Z,29.7
2023-08-15T12:34:15.807Z,29.8
2023-08-15T12:36:12.742Z,30
2023-08-15T12:38:09.599Z,30.1
2023-08-15T12:40:09.760Z,30.3
2023-08-15T12:42:15.149Z,30.4
2023-08-15T12:44:12.101Z,30.5
2023-08-15T12:46:09.528Z,30.8
2023-08-15T12:48:06.627Z,31.2
2023-08-15T12:50:03.723Z,31.7
2023-08-15T12:52:00.664Z,32.2
2023-08-15T12:53:57.610Z,33
2023-08-15T12:55:54.855Z,33.4
2023-08-15T12:57:51.777Z,33.5
2023-08-15T12:59:48.815Z,33.2
2023-08-15T13:01:45.957Z,32.8
2023-08-15T13:03:43.016Z,32.4
2023-08-15T13:05:39.991Z,32.2
2023-08-15T13:07:36.791Z,32.4
2023-08-15T13:09:33.707Z,32.3
2023-08-15T13:11:30.543Z,32.2
2023-08-15T13:13:27.459Z,32
2023-08-15T13:15:24.400Z,32.1
2023-08-15T13:17:21.571Z,32.2
2023-08-15T13:19:18.968Z,32.3
2023-08-15T13:21:15.863Z,32.2
2023-08-15T13:23:12.810Z,32
2023-08-15T13:25:09.817Z,31.7
2023-08-15T13:27:06.844Z,31.3
2023-08-15T13:29:03.762Z,30.9
2023-08-15T13:31:00.700Z,30.5
2023-08-15T13:32:57.910Z,30.1
2023-08-15T13:34:54.945Z,29.9
2023-08-15T13:36:52.068Z,29.5
2023-08-15T13:38:49.199Z,29.1
2023-08-15T13:40:46.393Z,28.9
2023-08-15T13:43:02.398Z,28.6
2023-08-15T13:45:00.161Z,28.5
2023-08-15T13:47:00.576Z,28.5
2023-08-15T13:48:57.649Z,28.4
2023-08-15T13:50:54.627Z,28.3
2023-08-15T13:52:51.794Z,28.3
2023-08-15T13:54:48.702Z,28.1
2023-08-15T13:56:45.641Z,27.9
2023-08-15T13:58:42.635Z,27.7
2023-08-15T14:00:39.668Z,27.5
2023-08-15T14:02:37.404Z,27.3
2023-08-15T14:04:34.828Z,27.1
2023-08-15T14:06:31.957Z,26.9
2023-08-15T14:08:29.242Z,26.8
2023-08-15T14:10:26.135Z,26.7
2023-08-15T14:12:23.288Z,26.6
2023-08-15T14:14:21.084Z,26.7
2023-08-15T14:16:18.325Z,27.1
2023-08-15T14:18:15.431Z,27.9
2023-08-15T14:20:12.601Z,28.6
2023-08-15T14:22:09.537Z,29.4
2023-08-15T14:24:06.462Z,29.9
2023-08-15T14:26:03.347Z,30.3
2023-08-15T14:28:00.392Z,30.8
2023-08-15T14:29:57.299Z,31.4
2023-08-15T14:31:54.195Z,32.2
2023-08-15T14:33:51.219Z,33.3
2023-08-15T14:35:48.408Z,34.5
2023-08-15T14:37:45.479Z,35.7
2023-08-15T14:39:42.349Z,36.6
2023-08-15T14:41:39.349Z,37.3
2023-08-15T14:43:36.439Z,37.9
2023-08-15T14:45:33.484Z,38.3
2023-08-15T14:47:30.454Z,38.7
2023-08-15T14:49:27.518Z,39.1
2023-08-15T14:51:24.997Z,39.4
2023-08-15T14:53:21.966Z,39.4
2023-08-15T14:55:18.958Z,39
2023-08-15T14:57:15.948Z,38.5
2023-08-15T14:59:12.997Z,38.5
2023-08-15T15:01:09.949Z,38.5
2023-08-15T15:03:07.199Z,38.6
2023-08-15T15:05:04.248Z,38.8
2023-08-15T15:07:01.203Z,38.9
2023-08-15T15:08:58.214Z,39.2
2023-08-15T15:10:55.208Z,39.4
2023-08-15T15:12:52.207Z,39.6
2023-08-15T15:14:49.243Z,39.7
2023-08-15T15:16:46.288Z,39.9
2023-08-15T15:18:43.548Z,40.1
2023-08-15T15:20:40.625Z,40.3
2023-08-15T15:22:37.808Z,40
2023-08-15T15:24:34.885Z,39.8
2023-08-15T15:26:31.716Z,39.7
2023-08-15T15:28:28.659Z,39.7
2023-08-15T15:30:25.545Z,39.7
2023-08-15T15:32:22.744Z,39.5
2023-08-15T15:34:20.454Z,39.4
2023-08-15T15:36:17.448Z,39.1
2023-08-15T15:38:14.435Z,38.8
2023-08-15T15:40:11.542Z,38.5
2023-08-15T15:42:08.781Z,38.1
2023-08-15T15:44:05.787Z,37.9
2023-08-15T15:46:02.853Z,37.8
2023-08-15T15:48:00.163Z,38
2023-08-15T15:49:57.317Z,38.1
2023-08-15T15:51:54.199Z,38.2
2023-08-15T15:53:51.126Z,37.7
2023-08-15T15:55:48.304Z,36.9
2023-08-15T15:57:45.243Z,35.8
2023-08-15T15:59:42.180Z,34.8
2023-08-15T16:01:39.184Z,33.9
2023-08-15T16:03:36.419Z,33
2023-08-15T16:05:33.469Z,32.2
2023-08-15T16:07:30.306Z,31.6
2023-08-15T16:09:27.436Z,30.9
2023-08-15T16:11:24.496Z,30.3
2023-08-15T16:13:21.487Z,29.9
2023-08-15T16:15:18.440Z,29.5
2023-08-15T16:17:15.325Z,29.2
2023-08-15T16:19:12.064Z,28.9
2023-08-15T16:21:08.980Z,28.7
2023-08-15T16:23:06.000Z,28.6
2023-08-15T16:25:03.112Z,28.5
2023-08-15T16:27:00.129Z,28.3
2023-08-15T16:28:57.021Z,28.3
2023-08-15T16:30:53.957Z,28.3
2023-08-15T16:32:51.472Z,28.2
2023-08-15T16:34:48.565Z,28.3
2023-08-15T16:36:45.404Z,28.9
2023-08-15T16:38:44.321Z,29.5
2023-08-15T16:40:41.230Z,29.8
2023-08-15T16:42:38.270Z,29.8
2023-08-15T16:44:35.219Z,30
2023-08-15T16:46:32.240Z,30.5
2023-08-15T16:48:29.448Z,30.5
2023-08-15T16:50:26.569Z,30.1
2023-08-15T16:52:23.553Z,29.5
2023-08-15T16:54:21.253Z,29
2023-08-15T16:56:18.224Z,28.6
2023-08-15T16:58:15.240Z,28.6
2023-08-15T17:00:12.234Z,29.1
2023-08-15T17:02:09.140Z,29.7
2023-08-15T17:04:06.525Z,30.4
2023-08-15T17:06:03.576Z,30.9
2023-08-15T17:08:00.435Z,31.4
2023-08-15T17:09:57.366Z,31.8
2023-08-15T17:11:54.378Z,32
2023-08-15T17:13:51.336Z,32.2
2023-08-15T17:15:48.225Z,32.2
2023-08-15T17:17:45.098Z,32.2
2023-08-15T17:19:42.221Z,32.2
2023-08-15T17:21:41.819Z,32
2023-08-15T17:23:38.691Z,32
2023-08-15T17:25:35.647Z,32
2023-08-15T17:27:32.614Z,32
2023-08-15T17:29:29.587Z,32
2023-08-15T17:31:29.209Z,32
2023-08-15T17:33:26.401Z,31.9
2023-08-15T17:35:23.281Z,31.8
2023-08-15T17:37:20.051Z,31.8
2023-08-15T17:39:17.002Z,31.7
2023-08-15T17:41:13.958Z,31.6
2023-08-15T17:43:10.918Z,31.4
2023-08-15T17:45:07.937Z,31.3
2023-08-15T17:47:05.080Z,31.1
2023-08-15T17:49:01.965Z,30.9
2023-08-15T17:50:58.801Z,30.8
2023-08-15T17:52:55.806Z,30.7
2023-08-15T17:54:52.648Z,30.5
2023-08-15T17:56:49.630Z,30.3
2023-08-15T17:58:46.715Z,30
2023-08-15T18:00:43.739Z,29.5
2023-08-15T18:02:40.654Z,29.2
2023-08-15T18:04:37.970Z,28.9
2023-08-15T18:06:34.856Z,28.6
2023-08-15T18:08:31.899Z,28.4
2023-08-15T18:10:28.857Z,28.2
2023-08-15T18:12:25.984Z,28.1
2023-08-15T18:14:22.955Z,28
2023-08-15T18:16:20.261Z,27.9
2023-08-15T18:18:17.527Z,27.8
2023-08-15T18:20:14.468Z,27.7
2023-08-15T18:22:12.865Z,27.5
2023-08-15T18:24:11.850Z,27.3
2023-08-15T18:26:08.788Z,27
2023-08-15T18:28:05.830Z,26.7
2023-08-15T18:30:02.731Z,26.4
2023-08-15T18:31:59.915Z,26.2
2023-08-15T18:33:57.214Z,25.9
2023-08-15T18:35:54.308Z,25.6
2023-08-15T18:37:51.397Z,25.3
2023-08-15T18:39:48.298Z,25
2023-08-15T18:41:45.220Z,24.6
2023-08-15T18:43:42.119Z,24.4
2023-08-15T18:45:39.096Z,24
2023-08-15T18:47:36.496Z,23.8
2023-08-15T18:49:33.663Z,23.6
2023-08-15T18:51:30.610Z,23.3
2023-08-15T18:53:27.705Z,23.2
2023-08-15T18:55:24.693Z,23
2023-08-15T18:57:21.635Z,22.8
2023-08-15T18:59:18.631Z,22.7
2023-08-15T19:01:16.232Z,22.5
2023-08-15T19:03:13.574Z,22.5
2023-08-15T19:05:11.042Z,22.3
2023-08-15T19:07:07.977Z,22.2
2023-08-15T19:09:04.869Z,22.1
2023-08-15T19:11:01.915Z,22
2023-08-15T19:12:58.806Z,21.9
2023-08-15T19:14:55.746Z,21.9
2023-08-15T19:16:52.765Z,21.7
2023-08-15T19:18:49.884Z,21.7
2023-08-15T19:20:46.852Z,21.6
2023-08-15T19:22:43.769Z,21.6
2023-08-15T19:24:41.301Z,21.6
2023-08-15T19:26:42.212Z,21.5
2023-08-15T19:28:39.256Z,21.5
2023-08-15T19:30:36.185Z,21.5
2023-08-15T19:32:33.250Z,21.5
2023-08-15T19:34:30.344Z,21.5
2023-08-15T19:36:27.323Z,21.5
2023-08-15T19:38:24.312Z,21.5
2023-08-15T19:40:21.615Z,21.5
2023-08-15T19:42:18.816Z,21.5
2023-08-15T19:44:15.735Z,21.5
2023-08-15T19:46:12.775Z,21.5
2023-08-15T19:48:10.014Z,21.5
2023-08-15T19:50:07.094Z,21.4
2023-08-15T19:52:04.091Z,21.4
2023-08-15T19:54:00.987Z,21.4
2023-08-15T19:55:57.916Z,21.4
2023-08-15T19:57:55.016Z,21.4
2023-08-15T19:59:51.955Z,21.4
2023-08-15T20:01:48.996Z,21.4
2023-08-15T20:03:46.072Z,21.4
2023-08-15T20:05:43.360Z,21.4
2023-08-15T20:07:40.349Z,21.4
2023-08-15T20:09:37.273Z,21.3
2023-08-15T20:11:34.274Z,21.3
2023-08-15T20:13:31.236Z,21.3
2023-08-15T20:15:28.182Z,21.3
2023-08-15T20:17:25.142Z,21.2
2023-08-15T20:19:22.475Z,21.2
2023-08-15T20:21:19.696Z,21.2
2023-08-15T20:23:16.699Z,21.1
2023-08-15T20:25:13.835Z,21.1
2023-08-15T20:27:10.938Z,21.1
2023-08-15T20:29:07.871Z,21.1
2023-08-15T20:31:04.763Z,21.1
2023-08-15T20:33:02.076Z,21.1
2023-08-15T20:34:59.308Z,21.1
2023-08-15T20:36:56.348Z,21.1
2023-08-15T20:38:53.394Z,21.1
2023-08-15T20:40:50.387Z,21
2023-08-15T20:42:47.381Z,21
2023-08-15T20:44:44.425Z,21
2023-08-15T20:46:41.611Z,21
2023-08-15T20:48:38.871Z,20.9
2023-08-15T20:50:36.044Z,20.9
2023-08-15T20:52:33.213Z,20.9
2023-08-15T20:54:30.364Z,20.8
2023-08-15T20:56:27.304Z,20.8
2023-08-15T20:58:24.296Z,20.7
2023-08-15T21:00:21.262Z,20.7
2023-08-15T21:02:18.708Z,20.7
2023-08-15T21:04:16.011Z,20.7
2023-08-15T21:06:13.207Z,20.7
2023-08-15T21:08:10.342Z,20.6
2023-08-15T21:10:07.276Z,20.6
2023-08-15T21:12:04.267Z,20.6
2023-08-15T21:14:01.208Z,20.6
2023-08-15T21:15:58.308Z,20.5
2023-08-15T21:17:55.256Z,20.5
2023-08-15T21:19:52.252Z,20.5
2023-08-15T21:21:49.211Z,20.5
2023-08-15T21:23:46.199Z,20.5
2023-08-15T21:25:43.272Z,20.5
2023-08-15T21:27:40.318Z,20.4
2023-08-15T21:29:37.261Z,20.4
2023-08-15T21:31:34.575Z,20.3
2023-08-15T21:33:31.751Z,20.3
2023-08-15T21:35:28.842Z,20.3
2023-08-15T21:37:26.078Z,20.3
2023-08-15T21:39:23.144Z,20.3
2023-08-15T21:41:20.130Z,20.3
2023-08-15T21:43:17.148Z,20.2
2023-08-15T21:45:14.377Z,20.1
2023-08-15T21:47:11.340Z,20.1
2023-08-15T21:49:08.290Z,20.1
2023-08-15T21:51:05.247Z,20
2023-08-15T21:53:02.334Z,20
2023-08-15T21:54:59.444Z,19.9
2023-08-15T21:56:59.358Z,19.8
2023-08-15T21:58:56.293Z,19.7
2023-08-15T22:00:53.334Z,19.7
2023-08-15T22:02:50.528Z,19.5
2023-08-15T22:04:47.679Z,19.5
2023-08-15T22:06:44.674Z,19.5
2023-08-15T22:08:41.538Z,19.4
2023-08-15T22:10:38.523Z,19.4
2023-08-15T22:12:35.550Z,19.3
2023-08-15T22:14:32.437Z,19.3
2023-08-15T22:16:29.519Z,19.2
2023-08-15T22:18:46.125Z,19.1
2023-08-15T22:20:43.210Z,19.1
2023-08-15T22:22:40.225Z,19
2023-08-15T22:24:37.302Z,18.9
2023-08-15T22:26:34.324Z,18.9
2023-08-15T22:28:31.456Z,18.8
2023-08-15T22:30:28.457Z,18.8
2023-08-15T22:32:25.656Z,18.7
2023-08-15T22:34:22.643Z,18.7
2023-08-15T22:36:19.632Z,18.7
2023-08-15T22:38:16.525Z,18.6
2023-08-15T22:40:13.591Z,18.5
2023-08-15T22:42:10.621Z,18.5
2023-08-15T22:44:07.556Z,18.5
2023-08-15T22:46:04.657Z,18.4
2023-08-15T22:48:01.945Z,18.4
2023-08-15T22:49:59.253Z,18.4
2023-08-15T22:51:56.243Z,18.3
2023-08-15T22:53:53.233Z,18.3
2023-08-15T22:55:50.389Z,18.3
2023-08-15T22:57:47.451Z,18.2
2023-08-15T22:59:44.466Z,18.2
2023-08-15T23:01:41.542Z,18.2
2023-08-15T23:03:38.664Z,18.1
2023-08-15T23:05:35.653Z,18.1
2023-08-15T23:07:32.750Z,18.1
2023-08-15T23:09:29.711Z,18.1
2023-08-15T23:11:26.910Z,18
2023-08-15T23:13:23.934Z,18
2023-08-15T23:15:21.112Z,18
2023-08-15T23:17:18.295Z,18
2023-08-15T23:19:15.471Z,18
2023-08-15T23:21:12.454Z,18
2023-08-15T23:23:09.517Z,18
2023-08-15T23:25:06.570Z,18
2023-08-15T23:27:03.697Z,18
2023-08-15T23:29:00.896Z,18.1
2023-08-15T23:30:57.856Z,18.1
2023-08-15T23:32:55.355Z,18.1
2023-08-15T23:34:52.494Z,18.2
2023-08-15T23:36:49.542Z,18.2
2023-08-15T23:38:46.466Z,18.2
2023-08-15T23:40:43.520Z,18.3
2023-08-15T23:42:40.686Z,18.3
2023-08-15T23:44:37.711Z,18.3
2023-08-15T23:46:34.747Z,18.3
2023-08-15T23:48:32.001Z,18.4
2023-08-15T23:50:28.979Z,18.4
2023-08-15T23:52:25.987Z,18.4
2023-08-15T23:54:22.876Z,18.4
2023-08-15T23:56:19.717Z,18.4
2023-08-15T23:58:16.783Z,18.4
